Terminal Aerodrome Forecast
Issued by NWS

Home | Current Version | Previous Version | Text Only | Print | Product List | Glossary On
Versions: 1 2 3 4 5 6 7 8 9 10 11 12 13 14 15 16
000
FTUS43 KGRB 241720
TAFRHI
TAF
KRHI 241720Z 2418/2518 19010KT P6SM SCT050 SCT100
     FM250000 18005KT P6SM SCT100
     FM250300 17004KT P6SM SKC WS011/21035KT
     FM251000 20005KT P6SM SCT250 WS011/23030KT
      TEMPO 2510/2513 4SM BR
     FM251400 22006KT P6SM SCT250
     FM251700 21008KT P6SM FEW050 BKN250=

USA.gov is the U.S. government's official web portal to all federal, state and local government web resources and services.